Terminal Aerodrome Forecast
Issued by NWS Nashville, TN

Home | Current Version | Previous Version | Text Only | Print | Product List | Glossary On
Versions: 1 2 3 4 5 6 7 8 9 10 11 12 13 14 15
000
FTUS44 KOHX 011723
TAFBNA
TAF
KBNA 011723Z 0118/0218 07003KT P6SM FEW045 SCT060 BKN250
      TEMPO 0209/0213 3SM BR
     FM021300 06003KT P6SM SCT070 BKN250=

USA.gov is the U.S. government's official web portal to all federal, state and local government web resources and services.